Time;durP1;ratioP1;P1;durP2;ratioP2;P2;SDS_P1;SDS_P2;PMS_P1;PMS_P2;Temp;Humidity;BMP_temperature;BMP_pressure;BME280_temperature;BME280_humidity;BME280_pressure;Samples;Min_cycle;Max_cycle;Signal;HPM_P1;HPM_P2
2022/05/29 00:00:27;;;;;;;2.15;0.60;;;;;;;12.75;54.42;98779.11;1760851;79;20986;-67
2022/05/29 00:02:54;;;;;;;2.35;1.00;;;;;;;12.72;54.60;98783.52;1759611;80;21021;-67
2022/05/29 00:05:20;;;;;;;2.37;0.50;;;;;;;12.71;54.72;98779.72;1766525;80;20946;-67
2022/05/29 00:07:49;;;;;;;0.53;0.53;;;;;;;12.68;54.74;98780.95;1787249;80;21211;-68
2022/05/29 00:10:15;;;;;;;0.95;0.53;;;;;;;12.64;54.87;98775.72;1761291;80;20982;-68
2022/05/29 00:12:43;;;;;;;1.02;0.70;;;;;;;12.61;54.98;98782.78;1759711;80;20895;-67
2022/05/29 00:15:11;;;;;;;0.50;0.50;;;;;;;12.59;55.14;98778.12;1764540;80;20951;-68
2022/05/29 00:17:38;;;;;;;3.15;0.75;;;;;;;12.55;55.30;98773.41;1767871;80;20939;-67
2022/05/29 00:20:06;;;;;;;2.15;0.60;;;;;;;12.51;55.44;98768.17;1759631;80;21049;-67
2022/05/29 00:22:33;;;;;;;1.02;0.40;;;;;;;12.49;55.69;98774.22;1759527;80;20922;-67
2022/05/29 00:25:01;;;;;;;1.10;0.60;;;;;;;12.44;55.90;98780.13;1767497;80;20995;-67
2022/05/29 00:27:27;;;;;;;0.88;0.42;;;;;;;12.37;56.10;98776.11;1762186;80;20990;-68
2022/05/29 00:29:54;;;;;;;0.45;0.42;;;;;;;12.33;56.38;98784.72;1759659;80;21073;-67
2022/05/29 00:32:20;;;;;;;0.45;0.40;;;;;;;12.29;56.55;98780.28;1759660;80;21212;-67
2022/05/29 00:34:47;;;;;;;1.35;0.68;;;;;;;12.27;56.72;98780.99;1764055;80;20973;-67
2022/05/29 00:37:15;;;;;;;1.27;0.45;;;;;;;12.26;56.85;98780.67;1762615;80;21528;-67
2022/05/29 00:39:42;;;;;;;2.72;1.45;;;;;;;12.25;57.00;98780.34;1759773;80;20908;-68
2022/05/29 00:42:12;;;;;;;0.80;0.47;;;;;;;12.21;57.14;98774.28;1765801;80;20828;-67
2022/05/29 00:44:39;;;;;;;1.32;0.78;;;;;;;12.20;57.24;98776.11;1773315;79;21081;-68
2022/05/29 00:47:14;;;;;;;1.90;0.80;;;;;;;12.19;57.34;98778.99;1782536;79;21536;-68
2022/05/29 00:49:42;;;;;;;2.58;0.85;;;;;;;12.18;57.41;98776.83;1787966;80;20923;-67
2022/05/29 00:52:23;;;;;;;1.72;0.72;;;;;;;12.20;57.43;98778.78;1769972;80;20987;-67
2022/05/29 00:55:00;;;;;;;1.47;0.98;;;;;;;12.22;57.43;98781.27;1780074;80;20986;-67
2022/05/29 00:57:33;;;;;;;2.37;0.93;;;;;;;12.22;57.49;98782.09;1774148;79;21136;-68
2022/05/29 01:00:11;;;;;;;1.65;0.90;;;;;;;12.22;57.53;98779.94;1759564;80;20883;-68
2022/05/29 01:02:38;;;;;;;1.10;0.80;;;;;;;12.22;57.65;98784.77;1758353;80;20958;-67
2022/05/29 01:05:07;;;;;;;1.35;0.80;;;;;;;12.22;57.86;98782.09;1759611;80;21571;-67
2022/05/29 01:07:35;;;;;;;1.75;0.85;;;;;;;12.23;58.15;98782.39;1768150;80;21005;-67
2022/05/29 01:10:03;;;;;;;2.70;0.90;;;;;;;12.25;58.04;98783.01;1759639;80;21778;-68
2022/05/29 01:12:38;;;;;;;2.05;0.95;;;;;;;12.27;57.96;98786.83;1759519;80;20934;-67
2022/05/29 01:15:33;;;;;;;1.70;0.93;;;;;;;12.29;57.87;98788.78;1759616;80;21538;-67
2022/05/29 01:18:21;;;;;;;1.70;1.07;;;;;;;12.31;57.85;98784.89;1768391;80;20864;-66
2022/05/29 01:21:21;;;;;;;2.40;1.07;;;;;;;12.32;57.74;98787.06;1758267;80;20978;-68
2022/05/29 01:24:10;;;;;;;2.62;1.00;;;;;;;12.31;57.66;98786.23;1766431;81;21244;-67
2022/05/29 01:27:08;;;;;;;2.30;1.20;;;;;;;12.30;57.67;98781.94;1768877;80;21045;-67
2022/05/29 01:30:02;;;;;;;2.05;1.05;;;;;;;12.31;57.82;98794.23;1767187;81;20963;-68
2022/05/29 01:33:01;;;;;;;0.80;0.75;;;;;;;12.31;57.97;98788.06;1772901;80;21406;-67
2022/05/29 01:35:36;;;;;;;1.42;1.05;;;;;;;12.32;58.02;98796.39;1773173;81;20998;-67
2022/05/29 01:38:10;;;;;;;1.17;0.85;;;;;;;12.33;58.11;98794.05;1751284;81;21758;-67
2022/05/29 01:40:57;;;;;;;1.25;0.88;;;;;;;12.31;58.20;98791.56;1743614;81;20932;-67
2022/05/29 01:43:32;;;;;;;1.50;0.80;;;;;;;12.31;58.28;98786.73;1765126;81;21027;-67
2022/05/29 01:46:05;;;;;;;1.92;1.20;;;;;;;12.31;58.36;98784.07;1773172;79;20943;-68
2022/05/29 01:49:16;;;;;;;2.08;1.00;;;;;;;12.32;58.34;98781.22;1745777;81;21267;-67
2022/05/29 01:52:03;;;;;;;1.75;1.07;;;;;;;12.32;58.41;98779.89;1654432;85;21893;-67
2022/05/29 01:54:38;;;;;;;2.15;1.55;;;;;;;12.35;58.46;98786.67;1733615;81;20868;-68
2022/05/29 01:57:17;;;;;;;2.87;0.98;;;;;;;12.35;58.52;98788.00;1767823;81;20996;-68
2022/05/29 02:00:07;;;;;;;1.52;1.00;;;;;;;12.34;58.72;98793.84;1749900;81;21056;-67
2022/05/29 02:02:40;;;;;;;1.47;1.15;;;;;;;12.31;58.85;98796.07;1743998;81;20988;-67
2022/05/29 02:05:11;;;;;;;1.20;0.90;;;;;;;12.27;58.91;98798.33;1743651;81;21825;-67
2022/05/29 02:07:47;;;;;;;3.50;1.20;;;;;;;12.22;59.07;98798.09;1753023;81;21493;-68
2022/05/29 02:10:46;;;;;;;2.35;1.22;;;;;;;12.15;59.30;98797.22;1762175;81;20939;-67
2022/05/29 02:13:44;;;;;;;2.50;1.10;;;;;;;12.11;59.45;98797.81;1748390;81;21495;-67
2022/05/29 02:16:22;;;;;;;2.00;1.10;;;;;;;12.06;59.61;98797.58;1764293;81;20915;-68
2022/05/29 02:19:00;;;;;;;1.85;1.32;;;;;;;11.98;59.89;98795.06;1751928;81;21121;-68
2022/05/29 02:21:44;;;;;;;3.27;1.10;;;;;;;11.90;60.06;98795.22;1768247;81;20975;-68
2022/05/29 02:24:16;;;;;;;2.02;1.00;;;;;;;11.83;60.26;98787.19;1772964;81;20907;-68
2022/05/29 02:26:50;;;;;;;2.77;1.30;;;;;;;11.78;60.46;98797.61;1773248;79;20943;-68
2022/05/29 02:29:17;;;;;;;2.55;1.10;;;;;;;11.72;60.72;98798.38;1756275;81;20988;-67
2022/05/29 02:32:09;;;;;;;2.12;0.88;;;;;;;11.67;60.99;98798.94;1747505;81;21235;-67
2022/05/29 02:34:53;;;;;;;3.02;1.20;;;;;;;11.63;61.14;98795.50;1766647;81;20990;-67
2022/05/29 02:37:43;;;;;;;1.47;0.88;;;;;;;11.58;61.28;98802.73;1771986;81;20987;-67
2022/05/29 02:40:30;;;;;;;2.37;1.10;;;;;;;11.54;61.51;98804.16;1773210;80;20880;-67
2022/05/29 02:43:38;;;;;;;1.50;1.02;;;;;;;11.53;61.60;98805.16;1772980;80;21497;-67
2022/05/29 02:46:27;;;;;;;2.58;1.05;;;;;;;11.52;61.84;98804.83;1766214;79;22016;-67
2022/05/29 02:49:01;;;;;;;1.98;0.95;;;;;;;11.55;62.08;98807.65;1764660;80;20888;-68
2022/05/29 02:51:39;;;;;;;1.02;0.80;;;;;;;11.56;62.11;98808.77;1756012;81;21058;-66
2022/05/29 02:54:05;;;;;;;1.17;1.07;;;;;;;11.62;62.21;98800.02;1773166;79;21607;-68
2022/05/29 02:56:32;;;;;;;3.95;1.17;;;;;;;11.68;62.20;98801.06;1760128;80;21438;-68
2022/05/29 02:58:58;;;;;;;2.37;1.02;;;;;;;11.76;62.04;98803.12;1743714;81;21142;-67
2022/05/29 03:01:51;;;;;;;1.80;1.00;;;;;;;11.86;61.95;98797.97;1743669;81;21453;-67
2022/05/29 03:04:35;;;;;;;1.98;0.85;;;;;;;11.97;61.79;98796.91;1743547;81;20920;-68
2022/05/29 03:07:22;;;;;;;5.85;1.10;;;;;;;12.11;61.43;98794.64;1746724;81;20964;-65
2022/05/29 03:10:09;;;;;;;1.55;1.00;;;;;;;12.27;61.12;98799.66;1752225;81;20920;-68
2022/05/29 03:13:04;;;;;;;2.80;1.40;;;;;;;12.49;60.59;98803.56;1743814;81;21131;-68
2022/05/29 03:15:50;;;;;;;3.30;2.10;;;;;;;12.72;59.87;98797.39;1762465;81;20875;-67
2022/05/29 03:18:37;;;;;;;;;;;;;;;12.96;59.10;98796.83;1746302;81;20971;-67
2022/05/29 03:21:23;;;;;;;2.00;1.10;;;;;;;13.21;58.38;98799.30;1764791;81;20463;-67
2022/05/29 03:24:10;;;;;;;1.87;1.07;;;;;;;13.50;57.61;98793.54;1773160;79;21162;-67
2022/05/29 03:26:54;;;;;;;2.05;1.20;;;;;;;13.82;56.58;98800.45;1761984;79;21153;-67
2022/05/29 03:29:46;;;;;;;2.65;1.70;;;;;;;14.10;55.71;98805.03;1756617;81;20921;-67
2022/05/29 03:32:12;;;;;;;4.60;2.30;;;;;;;14.43;55.04;98806.30;1738372;81;20903;-68
2022/05/29 03:34:40;;;;;;;3.08;2.40;;;;;;;14.79;54.36;98799.88;1743613;81;20970;-68
2022/05/29 03:37:06;;;;;;;3.17;2.12;;;;;;;15.13;53.37;98806.19;1754093;81;20990;-67
2022/05/29 03:39:34;;;;;;;3.33;2.35;;;;;;;15.42;52.07;98801.56;1743724;81;21217;-68
2022/05/29 03:42:00;;;;;;;5.67;2.55;;;;;;;15.70;51.10;98802.50;1743665;81;20848;-67
2022/05/29 03:44:27;;;;;;;4.60;2.72;;;;;;;15.99;50.37;98803.69;1743694;81;21005;-67
2022/05/29 03:46:54;;;;;;;2.77;2.30;;;;;;;16.30;49.45;98808.11;1752577;81;20899;-68
2022/05/29 03:49:22;;;;;;;5.12;2.85;;;;;;;16.60;48.70;98808.54;1743683;81;21521;-67
2022/05/29 03:51:49;;;;;;;2.85;2.65;;;;;;;16.94;47.98;98812.45;1743630;81;21091;-68
2022/05/29 03:54:16;;;;;;;4.10;2.10;;;;;;;17.33;47.18;98807.56;1743955;81;20907;-67
2022/05/29 03:56:42;;;;;;;2.37;2.05;;;;;;;17.71;46.23;98809.36;1743736;81;20932;-67
2022/05/29 03:59:09;;;;;;;3.85;2.02;;;;;;;18.08;45.43;98805.42;1743623;81;20971;-67
2022/05/29 04:01:37;;;;;;;2.77;1.98;;;;;;;18.41;44.18;98798.05;1743767;81;20935;-67
2022/05/29 04:04:03;;;;;;;2.45;2.25;;;;;;;18.68;43.52;98809.16;1743549;81;21233;-68
2022/05/29 04:06:34;;;;;;;2.60;1.87;;;;;;;18.94;42.75;98808.62;1753287;81;21030;-67
2022/05/29 04:14:28;;;;;;;2.10;1.70;;;;;;;19.69;40.65;98808.67;1735007;81;20987;-68
2022/05/29 04:16:55;;;;;;;4.10;2.00;;;;;;;19.89;40.15;98807.38;1747154;81;21086;-67
2022/05/29 04:19:23;;;;;;;1.80;1.50;;;;;;;20.10;39.85;98799.88;1743665;81;20951;-67
2022/05/29 04:21:50;;;;;;;1.85;1.60;;;;;;;20.36;39.54;98804.61;1743586;81;21480;-68
2022/05/29 04:24:19;;;;;;;1.82;1.50;;;;;;;20.60;38.67;98805.98;1747744;81;20896;-68
2022/05/29 04:26:48;;;;;;;1.07;1.05;;;;;;;20.80;38.31;98806.79;1748659;81;20939;-68
2022/05/29 04:29:16;;;;;;;2.60;1.70;;;;;;;21.03;37.81;98807.88;1743689;81;21151;-67
2022/05/29 04:34:12;;;;;;;4.22;1.67;;;;;;;21.47;37.03;98804.03;1752030;80;20996;-66
2022/05/29 04:36:38;;;;;;;1.98;1.27;;;;;;;21.72;36.68;98813.46;1756806;81;20966;-68
2022/05/29 04:39:05;;;;;;;3.15;1.10;;;;;;;21.95;36.44;98809.86;1743616;81;21026;-67
2022/05/29 04:41:32;;;;;;;1.40;1.20;;;;;;;22.25;35.88;98808.45;1743780;81;21310;-67
2022/05/29 04:44:00;;;;;;;3.47;1.30;;;;;;;22.55;35.44;98806.72;1744365;81;20920;-68
2022/05/29 04:46:27;;;;;;;1.15;0.80;;;;;;;22.90;34.97;98811.52;1743740;81;20935;-67
2022/05/29 04:48:53;;;;;;;2.30;2.08;;;;;;;23.24;34.48;98813.25;1743548;81;20979;-68
2022/05/29 04:51:19;;;;;;;3.25;1.30;;;;;;;23.51;34.05;98810.34;1743588;81;21010;-68
2022/05/29 04:53:46;;;;;;;1.40;0.90;;;;;;;23.69;33.98;98817.97;1743455;81;21149;-68
2022/05/29 04:56:12;;;;;;;1.82;1.22;;;;;;;23.77;33.38;98812.81;1757289;81;21037;-68
2022/05/29 04:58:39;;;;;;;1.12;0.80;;;;;;;23.82;33.38;98809.28;1754720;81;20967;-68
2022/05/29 05:01:05;;;;;;;1.35;1.10;;;;;;;23.90;33.56;98812.81;1773033;81;21097;-67
2022/05/29 05:03:33;;;;;;;1.90;1.00;;;;;;;24.14;32.84;98805.77;1769782;79;21659;-67
2022/05/29 05:05:59;;;;;;;2.10;1.20;;;;;;;24.39;32.44;98810.33;1759663;79;21105;-66
2022/05/29 05:08:26;;;;;;;3.83;1.20;;;;;;;24.68;31.92;98812.69;1758326;81;20930;-66
2022/05/29 05:10:52;;;;;;;4.05;1.10;;;;;;;24.92;31.46;98806.92;1744893;81;20975;-67
2022/05/29 05:13:19;;;;;;;4.20;1.10;;;;;;;25.20;31.52;98808.66;1745824;81;21552;-67
2022/05/29 05:15:45;;;;;;;2.83;1.25;;;;;;;25.50;30.91;98803.87;1743656;81;21029;-68
2022/05/29 05:18:12;;;;;;;1.80;1.17;;;;;;;25.72;30.46;98797.45;1751781;79;21103;-67
2022/05/29 05:20:38;;;;;;;2.47;1.82;;;;;;;25.87;30.15;98798.41;1763856;79;20967;-67
2022/05/29 05:23:05;;;;;;;1.75;1.45;;;;;;;26.00;30.02;98795.84;1750332;79;21142;-68
2022/05/29 05:25:32;;;;;;;1.57;1.22;;;;;;;26.24;29.61;98800.83;1762903;80;20926;-66
2022/05/29 05:27:59;;;;;;;2.52;1.22;;;;;;;26.48;29.10;98799.48;1773268;80;21037;-66
2022/05/29 05:30:25;;;;;;;2.02;1.17;;;;;;;26.59;28.59;98794.19;1771564;80;21532;-68
2022/05/29 05:32:52;;;;;;;0.98;0.80;;;;;;;26.73;28.45;98791.00;1775343;79;21021;-68
2022/05/29 05:35:18;;;;;;;3.33;1.20;;;;;;;26.84;28.24;98795.27;1779229;80;20914;-69
2022/05/29 05:37:45;;;;;;;1.30;0.90;;;;;;;27.00;28.05;98797.23;1767098;80;21531;-68
2022/05/29 05:40:13;;;;;;;2.95;1.25;;;;;;;27.24;27.89;98798.01;1777620;80;21096;-68
2022/05/29 05:42:41;;;;;;;1.87;1.20;;;;;;;27.47;27.31;98794.42;1766772;80;21258;-68
2022/05/29 05:45:10;;;;;;;2.40;1.27;;;;;;;27.81;26.99;98795.52;1784260;80;20911;-67
2022/05/29 05:47:37;;;;;;;2.62;1.30;;;;;;;28.08;26.95;98792.88;1780309;80;20930;-71
2022/05/29 05:50:05;;;;;;;3.40;3.10;;;;;;;28.34;25.79;98792.43;1772466;80;20926;-67
2022/05/29 05:52:31;;;;;;;2.40;1.80;;;;;;;28.48;25.87;98798.70;1766979;80;21041;-69
2022/05/29 05:54:58;;;;;;;1.42;1.32;;;;;;;28.79;25.18;98794.28;1777913;80;21145;-68
2022/05/29 05:57:24;;;;;;;2.52;0.98;;;;;;;29.02;24.56;98793.23;1762984;80;21050;-70
2022/05/29 05:59:51;;;;;;;2.85;0.90;;;;;;;29.20;24.42;98796.98;1767701;80;21053;-69
2022/05/29 06:02:17;;;;;;;1.90;1.10;;;;;;;29.35;23.97;98795.30;1776269;80;21081;-69
2022/05/29 06:04:45;;;;;;;2.15;1.00;;;;;;;29.32;23.71;98798.09;1774444;80;21240;-69
2022/05/29 06:07:11;;;;;;;2.90;0.95;;;;;;;29.26;23.73;98798.50;1780723;79;21178;-68
2022/05/29 06:09:38;;;;;;;3.60;1.00;;;;;;;29.29;23.98;98803.36;1767987;80;20969;-70
2022/05/29 06:12:07;;;;;;;1.85;1.25;;;;;;;29.59;23.61;98803.23;1772817;80;21005;-70
2022/05/29 06:14:35;;;;;;;2.50;1.10;;;;;;;29.83;22.76;98805.12;1777452;80;20965;-68
2022/05/29 06:17:03;;;;;;;1.40;1.07;;;;;;;29.85;22.45;98794.67;1779653;79;21789;-70
2022/05/29 06:19:30;;;;;;;1.95;0.90;;;;;;;29.90;22.39;98806.30;1771140;80;21321;-68
2022/05/29 06:21:57;;;;;;;1.82;1.00;;;;;;;30.09;22.42;98804.73;1771076;80;20978;-69
2022/05/29 06:24:23;;;;;;;1.50;1.07;;;;;;;30.39;22.12;98802.60;1768684;79;21038;-69
2022/05/29 06:26:51;;;;;;;1.87;1.02;;;;;;;30.54;21.42;98817.27;1767394;80;20993;-71
2022/05/29 06:29:18;;;;;;;1.98;1.15;;;;;;;30.51;21.21;98809.66;1749922;80;20993;-69
2022/05/29 06:31:45;;;;;;;3.55;1.02;;;;;;;30.63;21.39;98809.64;1769165;80;21206;-70
2022/05/29 06:34:11;;;;;;;4.62;2.30;;;;;;;30.94;20.99;98814.54;1775684;79;20970;-70
2022/05/29 06:36:40;;;;;;;1.75;0.90;;;;;;;31.14;20.79;98814.75;1764862;80;20982;-68
2022/05/29 06:39:06;;;;;;;2.10;1.20;;;;;;;31.19;20.14;98811.03;1763633;80;21500;-68
2022/05/29 06:41:34;;;;;;;1.77;1.02;;;;;;;30.86;19.88;98819.41;1782924;79;21074;-71
2022/05/29 06:44:01;;;;;;;2.95;0.95;;;;;;;30.66;20.36;98818.62;1770724;80;21000;-69
2022/05/29 06:46:28;;;;;;;2.42;0.93;;;;;;;30.74;20.57;98820.59;1775999;78;20915;-70
2022/05/29 06:48:55;;;;;;;1.65;0.85;;;;;;;30.99;20.59;98813.02;1772803;79;21543;-70
2022/05/29 06:51:22;;;;;;;2.80;1.07;;;;;;;30.98;20.37;98818.25;1776558;79;21050;-71
2022/05/29 06:53:50;;;;;;;2.55;1.20;;;;;;;30.83;20.05;98818.66;1768154;80;21625;-69
2022/05/29 06:56:17;;;;;;;2.45;0.90;;;;;;;30.06;20.55;98816.31;1760053;80;20994;-71
2022/05/29 06:58:46;;;;;;;2.10;1.02;;;;;;;30.03;21.04;98821.08;1772262;80;20958;-68
2022/05/29 07:06:59;;;;;;;2.58;0.93;;;;;;;30.65;21.12;98827.41;1778515;79;20977;-68
2022/05/29 07:09:32;;;;;;;2.40;1.20;;;;;;;31.03;20.71;98824.97;1779741;78;21076;-68
2022/05/29 07:12:06;;;;;;;1.45;1.00;;;;;;;30.66;21.33;98827.64;1768809;80;20989;-71
2022/05/29 07:14:36;;;;;;;3.47;1.00;;;;;;;31.31;20.48;98840.64;1770401;80;22403;-68
2022/05/29 07:17:03;;;;;;;2.33;0.88;;;;;;;31.30;19.90;98832.14;1768425;80;20990;-68
2022/05/29 07:19:30;;;;;;;1.52;0.80;;;;;;;30.93;19.98;98837.63;1778274;79;21017;-67
2022/05/29 07:21:57;;;;;;;1.55;0.88;;;;;;;30.60;20.22;98830.85;1766184;80;21225;-70
2022/05/29 07:24:27;;;;;;;3.37;0.82;;;;;;;30.09;20.80;98838.22;1765916;80;22374;-68
2022/05/29 07:26:53;;;;;;;2.25;1.25;;;;;;;30.16;20.72;98838.03;1743745;81;21564;-67
2022/05/29 07:29:23;;;;;;;2.37;0.90;;;;;;;29.64;21.44;98852.44;1744316;81;20994;-69
2022/05/29 07:31:52;;;;;;;1.82;1.02;;;;;;;30.05;21.36;98850.37;1750624;79;20978;-70
2022/05/29 07:34:18;;;;;;;1.45;0.93;;;;;;;30.43;20.64;98844.73;1754527;81;21182;-68
2022/05/29 07:36:45;;;;;;;2.17;1.07;;;;;;;30.71;20.58;98850.86;1743713;81;20978;-68
2022/05/29 07:39:12;;;;;;;1.60;0.90;;;;;;;31.11;19.70;98839.28;1752319;81;22225;-68
2022/05/29 07:44:24;;;;;;;1.75;1.57;;;;;;;31.40;19.51;98840.06;1755025;79;20899;-69
2022/05/29 07:46:51;;;;;;;2.90;1.20;;;;;;;31.76;19.52;98846.91;1750667;81;21242;-69
2022/05/29 07:49:18;;;;;;;1.98;1.30;;;;;;;32.20;19.12;98832.59;1743693;81;20884;-70
2022/05/29 07:51:44;;;;;;;3.52;1.52;;;;;;;31.96;19.44;98836.39;1743656;81;21434;-65
2022/05/29 07:54:11;;;;;;;4.33;1.50;;;;;;;31.98;20.03;98839.62;1750427;81;20932;-66
2022/05/29 07:56:38;;;;;;;3.87;1.32;;;;;;;31.69;20.69;98845.22;1752877;81;21524;-67
2022/05/29 07:59:06;;;;;;;1.87;1.25;;;;;;;32.32;20.97;98851.98;1743712;81;20982;-64
2022/05/29 08:01:32;;;;;;;1.30;1.02;;;;;;;32.65;19.57;98853.03;1745909;81;20892;-64
2022/05/29 08:03:59;;;;;;;3.47;1.02;;;;;;;32.20;20.16;98851.85;1750576;81;21463;-66
2022/05/29 08:06:25;;;;;;;5.80;0.82;;;;;;;33.00;19.20;98853.70;1751988;81;21021;-68
2022/05/29 08:08:52;;;;;;;6.97;0.90;;;;;;;32.06;18.87;98852.59;1748011;81;20986;-71
2022/05/29 08:11:19;;;;;;;1.27;0.93;;;;;;;31.06;18.73;98848.49;1749603;81;21785;-70
2022/05/29 08:13:45;;;;;;;4.10;1.07;;;;;;;30.08;19.84;98860.72;1748577;81;21013;-66
2022/05/29 08:16:16;;;;;;;4.08;1.42;;;;;;;29.24;21.06;98854.15;1751134;81;21034;-73
2022/05/29 08:18:41;;;;;;;80.20;7.12;;;;;;;28.63;22.70;98864.11;1747526;81;21513;-69
2022/05/29 08:21:07;;;;;;;3.95;1.07;;;;;;;28.24;23.40;98864.51;1743818;81;20994;-66
2022/05/29 08:23:35;;;;;;;2.10;0.70;;;;;;;27.91;23.80;98868.31;1743610;81;21098;-65
2022/05/29 08:31:18;;;;;;;4.28;1.10;;;;;;;26.75;26.31;98861.66;1726953;80;20959;-68
2022/05/29 08:33:46;;;;;;;2.15;0.75;;;;;;;26.43;26.70;98869.62;1752560;79;21429;-68
2022/05/29 08:36:15;;;;;;;1.55;0.80;;;;;;;26.10;26.68;98872.59;1755211;81;21315;-71
2022/05/29 08:38:45;;;;;;;1.82;0.90;;;;;;;25.89;26.62;98871.16;1772121;81;20929;-68
2022/05/29 08:41:19;;;;;;;2.33;0.85;;;;;;;25.74;27.05;98883.78;1771548;79;20895;-68
2022/05/29 08:44:09;;;;;;;1.30;0.73;;;;;;;25.61;26.62;98877.59;1743946;81;20955;-66
2022/05/29 08:46:41;;;;;;;2.87;1.47;;;;;;;25.46;27.11;98876.34;1753145;81;20966;-64
2022/05/29 08:49:11;;;;;;;1.10;0.95;;;;;;;25.31;27.54;98875.03;1743616;81;21135;-65
2022/05/29 08:52:15;;;;;;;3.50;1.40;;;;;;;25.16;28.20;98881.88;1750002;81;21492;-65
2022/05/29 08:55:09;;;;;;;1.35;1.05;;;;;;;25.08;28.74;98877.05;1758386;79;20907;-69
2022/05/29 08:58:28;;;;;;;1.95;0.78;;;;;;;24.90;28.02;98877.62;1772632;81;21014;-67
2022/05/29 09:01:19;;;;;;;1.15;1.05;;;;;;;24.64;27.38;98888.31;1753213;81;20986;-69
2022/05/29 09:03:58;;;;;;;3.35;0.90;;;;;;;24.40;28.42;98889.44;1766823;81;21141;-70
2022/05/29 09:06:31;;;;;;;2.35;1.02;;;;;;;24.28;28.93;98889.70;1761964;79;21547;-68
2022/05/29 09:09:11;;;;;;;3.75;0.90;;;;;;;24.24;28.70;98891.34;1755638;81;21051;-68
2022/05/29 09:11:49;;;;;;;1.32;0.68;;;;;;;24.20;28.58;98887.53;1744053;79;21089;-69
2022/05/29 09:14:26;;;;;;;1.55;0.72;;;;;;;24.20;28.49;98887.53;1764230;81;21077;-69
2022/05/29 09:17:06;;;;;;;3.30;1.17;;;;;;;24.15;28.84;98885.36;1747520;80;22503;-67
2022/05/29 09:19:53;;;;;;;2.95;0.98;;;;;;;24.11;28.83;98884.28;1751197;81;20883;-68
2022/05/29 09:22:34;;;;;;;1.60;0.65;;;;;;;24.09;28.53;98885.11;1763105;81;21251;-67
2022/05/29 09:25:11;;;;;;;3.40;0.90;;;;;;;24.04;27.81;98895.37;1759352;80;20991;-67
2022/05/29 09:27:42;;;;;;;1.20;0.75;;;;;;;24.05;28.67;98888.05;1756087;80;20994;-66
2022/05/29 09:30:10;;;;;;;1.55;0.72;;;;;;;24.08;28.13;98887.51;1757455;81;21121;-67
2022/05/29 09:32:43;;;;;;;1.77;1.05;;;;;;;23.98;28.03;98888.87;1764324;79;21026;-69
2022/05/29 09:35:30;;;;;;;4.17;0.95;;;;;;;23.82;28.27;98883.97;1760257;81;21080;-68
2022/05/29 09:38:20;;;;;;;1.22;0.75;;;;;;;23.71;29.13;98878.23;1723563;82;21006;-69
2022/05/29 09:41:01;;;;;;;4.60;1.10;;;;;;;23.64;29.52;98888.55;1766910;81;20985;-68
2022/05/29 09:43:29;;;;;;;3.67;0.80;;;;;;;23.62;29.21;98889.38;1748549;79;21232;-69
2022/05/29 09:46:19;;;;;;;2.05;0.62;;;;;;;23.63;29.79;98885.02;1743234;81;20982;-67
2022/05/29 09:51:42;;;;;;;3.45;0.80;;;;;;;23.59;29.39;98896.69;1764327;81;20900;-67
2022/05/29 09:54:12;;;;;;;1.20;0.60;;;;;;;23.59;29.20;98889.91;1770449;81;21043;-69
2022/05/29 09:56:38;;;;;;;2.05;0.53;;;;;;;23.63;28.78;98886.38;1768292;79;21136;-68
2022/05/29 09:59:15;;;;;;;0.65;0.55;;;;;;;23.67;28.44;98886.09;1758475;79;20997;-70
2022/05/29 10:01:46;;;;;;;1.05;0.45;;;;;;;23.64;28.53;98891.27;1716213;82;21009;-69
2022/05/29 10:04:22;;;;;;;2.83;0.98;;;;;;;23.63;28.71;98891.80;1726627;82;20952;-70
2022/05/29 10:06:56;;;;;;;1.62;0.70;;;;;;;23.59;28.83;98893.98;1720519;83;21019;-68
2022/05/29 10:09:25;;;;;;;1.25;0.62;;;;;;;23.50;28.17;98891.50;1727538;83;22360;-70
2022/05/29 10:11:55;;;;;;;2.30;0.90;;;;;;;23.43;28.48;98878.73;1717194;83;21046;-68
2022/05/29 10:14:41;;;;;;;1.02;0.60;;;;;;;23.44;28.79;98879.81;1704893;83;21003;-69
2022/05/29 10:17:18;;;;;;;4.60;0.70;;;;;;;23.44;28.44;98888.52;1699689;83;20951;-68
2022/05/29 10:19:45;;;;;;;1.02;0.68;;;;;;;23.39;28.61;98882.51;1701536;83;20893;-68
2022/05/29 10:22:23;;;;;;;3.05;0.80;;;;;;;23.38;28.33;98880.08;1710420;83;21154;-68
2022/05/29 10:24:49;;;;;;;2.77;0.70;;;;;;;23.29;28.89;98883.81;1708938;83;20979;-70
2022/05/29 10:27:34;;;;;;;1.07;0.60;;;;;;;23.27;28.46;98881.91;1700191;83;20987;-69
2022/05/29 10:30:11;;;;;;;6.50;0.90;;;;;;;23.21;28.10;98885.14;1700253;83;21002;-69
2022/05/29 10:32:41;;;;;;;1.07;0.75;;;;;;;23.10;28.16;98890.25;1707302;83;20983;-68
2022/05/29 10:35:27;;;;;;;1.55;1.12;;;;;;;23.01;28.75;98882.89;1701729;83;21145;-71
2022/05/29 10:37:54;;;;;;;1.62;0.82;;;;;;;23.00;29.13;98891.56;1719219;83;20991;-71
2022/05/29 10:40:31;;;;;;;2.02;0.90;;;;;;;23.02;28.72;98888.04;1727496;83;21624;-70
2022/05/29 10:43:01;;;;;;;2.77;0.90;;;;;;;22.98;28.66;98882.06;1713466;82;21003;-70
2022/05/29 10:45:44;;;;;;;6.15;0.90;;;;;;;22.94;29.45;98880.44;1710285;82;21023;-71
2022/05/29 10:48:35;;;;;;;2.25;0.50;;;;;;;22.93;29.86;98885.57;1710068;82;21313;-69
2022/05/29 10:51:21;;;;;;;0.82;0.53;;;;;;;22.88;29.76;98877.42;1669101;82;20932;-71
2022/05/29 10:54:17;;;;;;;2.80;0.65;;;;;;;22.81;30.06;98877.38;1767879;81;20986;-68
2022/05/29 10:57:17;;;;;;;4.25;1.00;;;;;;;22.68;29.95;98876.75;1768857;80;21423;-70
2022/05/29 11:00:07;;;;;;;5.83;0.90;;;;;;;22.55;30.38;98870.97;1770028;81;20994;-71
2022/05/29 11:03:21;;;;;;;1.35;0.85;;;;;;;22.45;31.06;98866.82;1764443;81;22060;-70
2022/05/29 11:06:09;;;;;;;0.98;0.70;;;;;;;22.42;30.57;98868.72;1770167;79;20935;-69
2022/05/29 11:08:58;;;;;;;1.90;0.98;;;;;;;22.43;30.60;98871.69;1757477;79;21049;-71
2022/05/29 11:11:33;;;;;;;2.25;0.55;;;;;;;22.52;30.02;98873.67;1754935;81;21478;-71
2022/05/29 11:14:29;;;;;;;2.50;1.20;;;;;;;22.57;29.13;98874.23;1750543;81;20887;-77
2022/05/29 11:17:37;;;;;;;1.60;1.07;;;;;;;22.58;29.46;98870.42;1762544;81;21505;-78
2022/05/29 11:20:20;;;;;;;0.95;0.82;;;;;;;22.60;29.62;98875.07;1763489;81;20967;-76
2022/05/29 11:23:25;;;;;;;1.85;0.55;;;;;;;22.56;29.65;98863.10;1770355;81;20931;-75
2022/05/29 11:26:09;;;;;;;0.98;0.50;;;;;;;22.54;29.34;98863.38;1783283;79;20981;-76
2022/05/29 11:28:51;;;;;;;2.27;0.75;;;;;;;22.54;29.37;98863.38;1788179;79;21488;-75
2022/05/29 11:31:51;;;;;;;3.00;1.00;;;;;;;22.53;29.55;98849.53;1754832;80;21197;-75
2022/05/29 11:34:37;;;;;;;35.23;2.60;;;;;;;22.57;29.57;98847.12;1782462;80;21488;-70
2022/05/29 11:37:20;;;;;;;3.08;0.53;;;;;;;22.59;30.46;98844.96;1780751;80;20903;-69
2022/05/29 11:39:52;;;;;;;4.37;0.90;;;;;;;22.55;30.58;98850.65;1789478;79;20970;-65
2022/05/29 11:42:47;;;;;;;23.73;1.62;;;;;;;22.57;30.43;98848.48;1750139;80;21497;-67
2022/05/29 11:51:28;;;;;;;4.15;3.30;;;;;;;22.79;30.76;98845.66;1778301;79;20910;-70
2022/05/29 11:54:15;;;;;;;10.08;1.77;;;;;;;22.90;30.81;98853.55;1774112;78;21541;-70
2022/05/29 11:56:57;;;;;;;0.60;0.60;;;;;;;22.94;29.62;98847.89;1776330;79;20902;-71
2022/05/29 11:59:28;;;;;;;1.10;0.70;;;;;;;22.96;28.99;98838.94;1782070;80;21103;-66
2022/05/29 12:02:03;;;;;;;1.05;0.50;;;;;;;22.96;29.23;98840.83;1782425;79;20989;-66
2022/05/29 12:04:38;;;;;;;2.57;0.80;;;;;;;22.99;29.43;98846.55;1759908;80;21026;-68
2022/05/29 12:07:16;;;;;;;0.65;0.50;;;;;;;22.99;29.16;98847.91;1783327;80;21038;-66
2022/05/29 12:10:04;;;;;;;1.55;0.70;;;;;;;23.01;29.34;98844.39;1760408;79;20843;-66
2022/05/29 12:12:39;;;;;;;4.28;0.62;;;;;;;23.03;29.58;98850.89;1777847;80;21256;-65
2022/05/29 12:15:10;;;;;;;13.08;1.67;;;;;;;23.00;29.38;98843.28;1780991;80;21233;-65
2022/05/29 12:18:02;;;;;;;105.03;6.90;;;;;;;22.98;29.44;98843.55;1763191;80;21566;-67
2022/05/29 12:20:56;;;;;;;7.42;0.82;;;;;;;22.97;29.41;98843.27;1772053;80;20931;-67
2022/05/29 12:23:42;;;;;;;1.87;0.60;;;;;;;22.93;29.54;98835.40;1764956;80;20938;-67
2022/05/29 12:26:14;;;;;;;2.15;0.60;;;;;;;22.88;29.73;98835.38;1765834;80;21085;-67
2022/05/29 12:28:52;;;;;;;1.25;0.62;;;;;;;22.81;29.46;98836.17;1771351;80;20875;-64
2022/05/29 12:31:27;;;;;;;2.95;0.88;;;;;;;22.75;29.16;98834.51;1754054;80;20950;-67
2022/05/29 12:33:53;;;;;;;4.65;0.80;;;;;;;22.73;29.02;98831.25;1754351;80;20974;-66
2022/05/29 12:36:49;;;;;;;5.65;0.78;;;;;;;22.72;29.28;98833.67;1758645;80;21007;-67
2022/05/29 12:39:31;;;;;;;1.50;0.50;;;;;;;22.69;29.80;98833.66;1722781;80;21256;-65